チャーチル の空港の天気 - METARとTAF

チャーチル空港 ( CYYQ / YYQ ) - カナダ マニトバ州Churchill
飛行場実況気象(Metar)
観測時間08/04 17:00 CDT (08/04 22:00 UTC)
風向・風速南南西 6m/s 瞬間風速9m/s
視程10km以上
天気現象
少しの雲 雲底高度 910m
気温28℃
湿度37%
気圧1010.6hPa
METARCYYQ 042200Z 21011G18KT 15SM FEW030 28/12 A2984 RMK SC1 SC TR SLP106 DENSITY ALT 1800FT
過去の天気等 Google飛行場航空写真 Wunderground天気予報

過去48時間のMETAR

飛行場予報(TAF)
発表時間: 8/04 12:39 CDT (8/04 17:39 UTC)
予報対象時間: 4日13時 CDT ~ 5日13時 CDT
風向・風速南西 8m/s
視程10km以上
少しの雲 雲底高度 910m
4日21時 CDT ~ 4日23時 CDT に徐々に
風向・風速南 5m/s
5日8時 CDT から
風向・風速南 5m/s
視程10km以上
全天の4割程度の雲 雲底高度 1220m
全天の8割程度の雲 雲底高度 2440m
5日8時 CDT ~ 5日13時 CDT に一時的に
視程10km以上
天気現象弱いしゅう雨
全天の8割程度の雲 雲底高度 610m
全天を覆う雲 雲底高度 2440m
TAF CYYQ 041739Z 0418/0518 22015KT P6SM FEW030
BECMG 0502/0504 19010KT
FM051300 18010KT P6SM SCT040 BKN080
TEMPO 0513/0518 P6SM -SHRA BKN020 OVC080 RMK NXT FCST BY 050000Z